sensor_id;sensor_type;location;lat;lon;timestamp;P1;durP1;ratioP1;P2;durP2;ratioP2
23302;SDS011;11820;48.738;9.092;2022-12-08T00:00:35;9.03;;;7.70;;
23302;SDS011;11820;48.738;9.092;2022-12-08T00:03:01;10.77;;;7.23;;
23302;SDS011;11820;48.738;9.092;2022-12-08T00:05:26;8.07;;;6.80;;
23302;SDS011;11820;48.738;9.092;2022-12-08T00:08:10;14.67;;;8.10;;
23302;SDS011;11820;48.738;9.092;2022-12-08T00:10:54;13.80;;;7.03;;
23302;SDS011;11820;48.738;9.092;2022-12-08T00:13:19;9.20;;;6.87;;
23302;SDS011;11820;48.738;9.092;2022-12-08T00:15:44;10.50;;;7.60;;
23302;SDS011;11820;48.738;9.092;2022-12-08T00:18:10;10.83;;;7.13;;
23302;SDS011;11820;48.738;9.092;2022-12-08T00:20:35;10.00;;;7.27;;
23302;SDS011;11820;48.738;9.092;2022-12-08T00:23:00;8.03;;;6.80;;
23302;SDS011;11820;48.738;9.092;2022-12-08T00:25:25;8.20;;;6.67;;
23302;SDS011;11820;48.738;9.092;2022-12-08T00:27:51;9.83;;;7.50;;
23302;SDS011;11820;48.738;9.092;2022-12-08T00:30:16;8.33;;;6.93;;
23302;SDS011;11820;48.738;9.092;2022-12-08T00:32:41;9.87;;;7.47;;
23302;SDS011;11820;48.738;9.092;2022-12-08T00:35:07;10.07;;;7.30;;
23302;SDS011;11820;48.738;9.092;2022-12-08T00:37:32;9.43;;;7.43;;
23302;SDS011;11820;48.738;9.092;2022-12-08T00:39:57;10.60;;;7.43;;
23302;SDS011;11820;48.738;9.092;2022-12-08T00:42:23;8.47;;;7.00;;
23302;SDS011;11820;48.738;9.092;2022-12-08T00:44:48;9.37;;;6.93;;
23302;SDS011;11820;48.738;9.092;2022-12-08T00:47:13;8.27;;;7.17;;
23302;SDS011;11820;48.738;9.092;2022-12-08T00:49:39;11.80;;;8.70;;
23302;SDS011;11820;48.738;9.092;2022-12-08T00:52:05;10.07;;;6.70;;
23302;SDS011;11820;48.738;9.092;2022-12-08T00:54:30;10.17;;;7.10;;
23302;SDS011;11820;48.738;9.092;2022-12-08T00:56:55;12.43;;;7.83;;
23302;SDS011;11820;48.738;9.092;2022-12-08T00:59:21;11.23;;;8.07;;
23302;SDS011;11820;48.738;9.092;2022-12-08T01:01:46;8.90;;;7.20;;
23302;SDS011;11820;48.738;9.092;2022-12-08T01:04:13;10.33;;;8.07;;
23302;SDS011;11820;48.738;9.092;2022-12-08T01:06:40;9.43;;;7.87;;
23302;SDS011;11820;48.738;9.092;2022-12-08T01:09:06;10.47;;;7.80;;
23302;SDS011;11820;48.738;9.092;2022-12-08T01:11:32;9.83;;;7.03;;
23302;SDS011;11820;48.738;9.092;2022-12-08T01:13:58;9.43;;;6.77;;
23302;SDS011;11820;48.738;9.092;2022-12-08T01:16:25;8.60;;;7.10;;
23302;SDS011;11820;48.738;9.092;2022-12-08T01:18:55;7.67;;;6.57;;
23302;SDS011;11820;48.738;9.092;2022-12-08T01:21:21;7.27;;;6.57;;
23302;SDS011;11820;48.738;9.092;2022-12-08T01:23:46;9.03;;;7.40;;
23302;SDS011;11820;48.738;9.092;2022-12-08T01:26:13;8.70;;;7.17;;
23302;SDS011;11820;48.738;9.092;2022-12-08T01:28:40;10.63;;;7.43;;
23302;SDS011;11820;48.738;9.092;2022-12-08T01:31:10;8.70;;;7.73;;
23302;SDS011;11820;48.738;9.092;2022-12-08T01:33:37;10.27;;;7.50;;
23302;SDS011;11820;48.738;9.092;2022-12-08T01:36:03;8.43;;;7.17;;
23302;SDS011;11820;48.738;9.092;2022-12-08T01:38:29;10.50;;;7.90;;
23302;SDS011;11820;48.738;9.092;2022-12-08T01:40:55;11.10;;;8.17;;
23302;SDS011;11820;48.738;9.092;2022-12-08T01:43:20;10.63;;;7.60;;
23302;SDS011;11820;48.738;9.092;2022-12-08T01:45:46;9.77;;;7.70;;
23302;SDS011;11820;48.738;9.092;2022-12-08T01:48:13;8.30;;;7.47;;
23302;SDS011;11820;48.738;9.092;2022-12-08T01:50:46;8.83;;;7.77;;
23302;SDS011;11820;48.738;9.092;2022-12-08T01:53:22;9.10;;;7.60;;
23302;SDS011;11820;48.738;9.092;2022-12-08T01:56:10;8.37;;;6.93;;
23302;SDS011;11820;48.738;9.092;2022-12-08T01:58:45;9.87;;;7.30;;
23302;SDS011;11820;48.738;9.092;2022-12-08T02:01:13;9.07;;;7.33;;
23302;SDS011;11820;48.738;9.092;2022-12-08T02:03:41;9.03;;;7.27;;
23302;SDS011;11820;48.738;9.092;2022-12-08T02:06:10;8.30;;;7.20;;
23302;SDS011;11820;48.738;9.092;2022-12-08T02:08:35;9.10;;;7.67;;
23302;SDS011;11820;48.738;9.092;2022-12-08T02:11:04;8.60;;;6.50;;
23302;SDS011;11820;48.738;9.092;2022-12-08T02:13:32;8.53;;;7.07;;
23302;SDS011;11820;48.738;9.092;2022-12-08T02:23:52;9.40;;;7.40;;
23302;SDS011;11820;48.738;9.092;2022-12-08T02:37:07;10.73;;;8.10;;
23302;SDS011;11820;48.738;9.092;2022-12-08T02:39:49;10.50;;;7.67;;
23302;SDS011;11820;48.738;9.092;2022-12-08T02:44:53;10.47;;;8.07;;
23302;SDS011;11820;48.738;9.092;2022-12-08T02:47:22;9.33;;;7.23;;
23302;SDS011;11820;48.738;9.092;2022-12-08T02:49:49;8.73;;;7.00;;
23302;SDS011;11820;48.738;9.092;2022-12-08T02:54:43;8.07;;;7.13;;
23302;SDS011;11820;48.738;9.092;2022-12-08T02:57:18;9.30;;;7.87;;
23302;SDS011;11820;48.738;9.092;2022-12-08T03:00:06;8.37;;;7.30;;
23302;SDS011;11820;48.738;9.092;2022-12-08T03:05:04;8.73;;;7.53;;
23302;SDS011;11820;48.738;9.092;2022-12-08T03:10:18;9.20;;;6.93;;
23302;SDS011;11820;48.738;9.092;2022-12-08T03:12:55;8.70;;;7.13;;
23302;SDS011;11820;48.738;9.092;2022-12-08T03:15:27;10.00;;;7.33;;
23302;SDS011;11820;48.738;9.092;2022-12-08T03:17:56;9.63;;;7.50;;
23302;SDS011;11820;48.738;9.092;2022-12-08T03:20:23;9.80;;;7.50;;
23302;SDS011;11820;48.738;9.092;2022-12-08T03:22:51;9.97;;;8.20;;
23302;SDS011;11820;48.738;9.092;2022-12-08T03:25:20;9.00;;;7.53;;
23302;SDS011;11820;48.738;9.092;2022-12-08T03:27:46;9.13;;;7.50;;
23302;SDS011;11820;48.738;9.092;2022-12-08T03:30:13;8.30;;;6.13;;
23302;SDS011;11820;48.738;9.092;2022-12-08T03:35:36;9.23;;;7.20;;
23302;SDS011;11820;48.738;9.092;2022-12-08T03:38:05;8.87;;;7.13;;
23302;SDS011;11820;48.738;9.092;2022-12-08T03:40:34;8.37;;;6.97;;
23302;SDS011;11820;48.738;9.092;2022-12-08T03:43:00;8.70;;;7.43;;
23302;SDS011;11820;48.738;9.092;2022-12-08T03:45:25;8.20;;;6.87;;
23302;SDS011;11820;48.738;9.092;2022-12-08T03:47:51;12.97;;;7.53;;
23302;SDS011;11820;48.738;9.092;2022-12-08T03:50:16;9.33;;;7.47;;
23302;SDS011;11820;48.738;9.092;2022-12-08T03:52:41;8.30;;;7.10;;
23302;SDS011;11820;48.738;9.092;2022-12-08T03:55:07;7.37;;;6.37;;
23302;SDS011;11820;48.738;9.092;2022-12-08T03:57:33;9.27;;;7.00;;
23302;SDS011;11820;48.738;9.092;2022-12-08T03:59:58;8.77;;;7.27;;
23302;SDS011;11820;48.738;9.092;2022-12-08T04:02:23;8.83;;;7.30;;
23302;SDS011;11820;48.738;9.092;2022-12-08T04:04:49;11.20;;;7.50;;
23302;SDS011;11820;48.738;9.092;2022-12-08T04:07:14;7.63;;;6.40;;
23302;SDS011;11820;48.738;9.092;2022-12-08T04:09:40;8.33;;;6.77;;
23302;SDS011;11820;48.738;9.092;2022-12-08T04:12:05;8.43;;;7.17;;
23302;SDS011;11820;48.738;9.092;2022-12-08T04:14:31;9.43;;;7.03;;
23302;SDS011;11820;48.738;9.092;2022-12-08T04:16:57;10.17;;;7.77;;
23302;SDS011;11820;48.738;9.092;2022-12-08T04:19:22;11.00;;;7.57;;
23302;SDS011;11820;48.738;9.092;2022-12-08T04:21:47;13.00;;;7.47;;
23302;SDS011;11820;48.738;9.092;2022-12-08T04:24:12;11.40;;;7.53;;
23302;SDS011;11820;48.738;9.092;2022-12-08T04:26:38;8.50;;;6.57;;
23302;SDS011;11820;48.738;9.092;2022-12-08T04:29:03;9.13;;;7.07;;
23302;SDS011;11820;48.738;9.092;2022-12-08T04:31:28;9.50;;;7.43;;
23302;SDS011;11820;48.738;9.092;2022-12-08T04:33:53;9.83;;;7.20;;
23302;SDS011;11820;48.738;9.092;2022-12-08T04:36:19;9.20;;;7.73;;
23302;SDS011;11820;48.738;9.092;2022-12-08T04:38:44;10.47;;;7.37;;
23302;SDS011;11820;48.738;9.092;2022-12-08T04:41:09;8.13;;;7.30;;
23302;SDS011;11820;48.738;9.092;2022-12-08T04:43:35;10.37;;;7.80;;
23302;SDS011;11820;48.738;9.092;2022-12-08T04:46:01;8.93;;;7.17;;
23302;SDS011;11820;48.738;9.092;2022-12-08T04:48:30;10.50;;;7.20;;
23302;SDS011;11820;48.738;9.092;2022-12-08T04:50:56;9.60;;;7.40;;
23302;SDS011;11820;48.738;9.092;2022-12-08T04:53:21;10.77;;;7.57;;
23302;SDS011;11820;48.738;9.092;2022-12-08T04:55:46;10.23;;;7.10;;
23302;SDS011;11820;48.738;9.092;2022-12-08T04:58:14;9.07;;;7.60;;
23302;SDS011;11820;48.738;9.092;2022-12-08T05:00:41;11.03;;;6.90;;
23302;SDS011;11820;48.738;9.092;2022-12-08T05:03:07;8.67;;;7.53;;
23302;SDS011;11820;48.738;9.092;2022-12-08T05:05:33;8.40;;;6.30;;
23302;SDS011;11820;48.738;9.092;2022-12-08T05:07:58;7.57;;;6.50;;
23302;SDS011;11820;48.738;9.092;2022-12-08T05:10:24;7.77;;;6.37;;
23302;SDS011;11820;48.738;9.092;2022-12-08T05:12:49;7.37;;;5.83;;
23302;SDS011;11820;48.738;9.092;2022-12-08T05:15:14;7.17;;;5.53;;
23302;SDS011;11820;48.738;9.092;2022-12-08T05:17:40;7.17;;;6.47;;
23302;SDS011;11820;48.738;9.092;2022-12-08T05:20:05;7.80;;;5.47;;
23302;SDS011;11820;48.738;9.092;2022-12-08T05:22:31;8.47;;;6.60;;
23302;SDS011;11820;48.738;9.092;2022-12-08T05:24:56;7.30;;;5.97;;
23302;SDS011;11820;48.738;9.092;2022-12-08T05:27:22;7.33;;;6.10;;
23302;SDS011;11820;48.738;9.092;2022-12-08T05:29:47;8.77;;;6.50;;
23302;SDS011;11820;48.738;9.092;2022-12-08T05:32:14;7.43;;;5.73;;
23302;SDS011;11820;48.738;9.092;2022-12-08T05:34:39;7.57;;;6.20;;
23302;SDS011;11820;48.738;9.092;2022-12-08T05:37:05;9.83;;;6.23;;
23302;SDS011;11820;48.738;9.092;2022-12-08T05:39:30;7.97;;;6.57;;
23302;SDS011;11820;48.738;9.092;2022-12-08T05:41:55;8.17;;;5.57;;
23302;SDS011;11820;48.738;9.092;2022-12-08T05:44:21;9.73;;;7.00;;
23302;SDS011;11820;48.738;9.092;2022-12-08T05:46:46;8.93;;;6.80;;
23302;SDS011;11820;48.738;9.092;2022-12-08T05:49:12;8.23;;;6.50;;
23302;SDS011;11820;48.738;9.092;2022-12-08T05:51:37;9.77;;;7.03;;
23302;SDS011;11820;48.738;9.092;2022-12-08T05:54:03;7.83;;;7.03;;
23302;SDS011;11820;48.738;9.092;2022-12-08T05:56:28;9.50;;;6.27;;
23302;SDS011;11820;48.738;9.092;2022-12-08T05:58:53;8.90;;;6.83;;
23302;SDS011;11820;48.738;9.092;2022-12-08T06:01:23;8.20;;;7.00;;
23302;SDS011;11820;48.738;9.092;2022-12-08T06:03:51;7.83;;;6.17;;
23302;SDS011;11820;48.738;9.092;2022-12-08T06:06:17;8.27;;;6.90;;
23302;SDS011;11820;48.738;9.092;2022-12-08T06:08:43;11.17;;;7.30;;
23302;SDS011;11820;48.738;9.092;2022-12-08T06:11:09;10.83;;;7.20;;
23302;SDS011;11820;48.738;9.092;2022-12-08T06:13:34;9.93;;;6.63;;
23302;SDS011;11820;48.738;9.092;2022-12-08T06:16:05;7.67;;;6.43;;
23302;SDS011;11820;48.738;9.092;2022-12-08T06:18:31;7.87;;;6.30;;
23302;SDS011;11820;48.738;9.092;2022-12-08T06:21:03;9.57;;;7.03;;
23302;SDS011;11820;48.738;9.092;2022-12-08T06:23:29;10.33;;;6.67;;
23302;SDS011;11820;48.738;9.092;2022-12-08T06:25:59;9.73;;;7.20;;
23302;SDS011;11820;48.738;9.092;2022-12-08T06:28:29;8.57;;;6.90;;
23302;SDS011;11820;48.738;9.092;2022-12-08T06:30:55;7.87;;;6.73;;
23302;SDS011;11820;48.738;9.092;2022-12-08T06:33:21;9.93;;;6.90;;
23302;SDS011;11820;48.738;9.092;2022-12-08T06:35:46;10.17;;;6.83;;
23302;SDS011;11820;48.738;9.092;2022-12-08T06:38:11;10.47;;;6.43;;
23302;SDS011;11820;48.738;9.092;2022-12-08T06:40:37;8.70;;;6.90;;
23302;SDS011;11820;48.738;9.092;2022-12-08T06:43:02;9.67;;;6.90;;
23302;SDS011;11820;48.738;9.092;2022-12-08T06:45:27;11.27;;;6.23;;
23302;SDS011;11820;48.738;9.092;2022-12-08T06:47:52;17.67;;;6.03;;
23302;SDS011;11820;48.738;9.092;2022-12-08T06:50:18;13.20;;;6.87;;
23302;SDS011;11820;48.738;9.092;2022-12-08T06:52:43;8.97;;;7.43;;
23302;SDS011;11820;48.738;9.092;2022-12-08T06:55:10;10.50;;;7.17;;
23302;SDS011;11820;48.738;9.092;2022-12-08T06:57:36;9.10;;;6.93;;
23302;SDS011;11820;48.738;9.092;2022-12-08T07:00:02;9.30;;;6.87;;
23302;SDS011;11820;48.738;9.092;2022-12-08T07:02:29;9.63;;;7.23;;
23302;SDS011;11820;48.738;9.092;2022-12-08T07:04:54;10.90;;;6.97;;
23302;SDS011;11820;48.738;9.092;2022-12-08T07:07:19;9.53;;;7.30;;
23302;SDS011;11820;48.738;9.092;2022-12-08T07:09:45;11.43;;;6.60;;
23302;SDS011;11820;48.738;9.092;2022-12-08T07:12:10;9.93;;;7.67;;
23302;SDS011;11820;48.738;9.092;2022-12-08T07:14:36;8.70;;;6.43;;
23302;SDS011;11820;48.738;9.092;2022-12-08T07:17:01;10.87;;;7.37;;
23302;SDS011;11820;48.738;9.092;2022-12-08T07:19:26;11.90;;;7.23;;
23302;SDS011;11820;48.738;9.092;2022-12-08T07:21:51;8.47;;;6.40;;
23302;SDS011;11820;48.738;9.092;2022-12-08T07:24:17;9.27;;;6.60;;
23302;SDS011;11820;48.738;9.092;2022-12-08T07:26:42;10.47;;;6.57;;
23302;SDS011;11820;48.738;9.092;2022-12-08T07:29:08;7.60;;;6.03;;
23302;SDS011;11820;48.738;9.092;2022-12-08T07:31:34;9.40;;;6.90;;
23302;SDS011;11820;48.738;9.092;2022-12-08T07:34:00;10.80;;;6.63;;
23302;SDS011;11820;48.738;9.092;2022-12-08T07:36:25;8.37;;;6.53;;
23302;SDS011;11820;48.738;9.092;2022-12-08T07:38:51;9.77;;;7.43;;
23302;SDS011;11820;48.738;9.092;2022-12-08T07:41:19;7.00;;;6.30;;
23302;SDS011;11820;48.738;9.092;2022-12-08T07:43:48;7.47;;;6.32;;
23302;SDS011;11820;48.738;9.092;2022-12-08T07:46:14;8.13;;;7.17;;
23302;SDS011;11820;48.738;9.092;2022-12-08T07:48:41;6.70;;;5.93;;
23302;SDS011;11820;48.738;9.092;2022-12-08T07:51:07;7.67;;;5.80;;
23302;SDS011;11820;48.738;9.092;2022-12-08T07:53:33;6.97;;;6.07;;
23302;SDS011;11820;48.738;9.092;2022-12-08T07:55:58;9.20;;;6.47;;
23302;SDS011;11820;48.738;9.092;2022-12-08T07:58:24;11.00;;;7.57;;
23302;SDS011;11820;48.738;9.092;2022-12-08T08:00:50;9.97;;;6.30;;
23302;SDS011;11820;48.738;9.092;2022-12-08T08:03:16;9.70;;;6.73;;
23302;SDS011;11820;48.738;9.092;2022-12-08T08:05:42;7.20;;;6.00;;
23302;SDS011;11820;48.738;9.092;2022-12-08T08:08:08;6.67;;;5.73;;
23302;SDS011;11820;48.738;9.092;2022-12-08T08:10:34;6.57;;;5.53;;
23302;SDS011;11820;48.738;9.092;2022-12-08T08:12:59;9.00;;;5.77;;
23302;SDS011;11820;48.738;9.092;2022-12-08T08:15:25;7.50;;;5.97;;
23302;SDS011;11820;48.738;9.092;2022-12-08T08:17:51;7.83;;;5.73;;
23302;SDS011;11820;48.738;9.092;2022-12-08T08:20:17;8.33;;;5.27;;
23302;SDS011;11820;48.738;9.092;2022-12-08T08:22:46;10.10;;;6.03;;
23302;SDS011;11820;48.738;9.092;2022-12-08T08:25:14;8.20;;;6.07;;
23302;SDS011;11820;48.738;9.092;2022-12-08T08:27:39;9.00;;;5.67;;
23302;SDS011;11820;48.738;9.092;2022-12-08T08:30:07;7.50;;;5.80;;
23302;SDS011;11820;48.738;9.092;2022-12-08T08:32:34;5.93;;;4.93;;
23302;SDS011;11820;48.738;9.092;2022-12-08T08:35:00;8.43;;;5.70;;
23302;SDS011;11820;48.738;9.092;2022-12-08T08:37:26;8.50;;;5.47;;
23302;SDS011;11820;48.738;9.092;2022-12-08T08:39:52;6.20;;;5.00;;
23302;SDS011;11820;48.738;9.092;2022-12-08T08:42:18;6.43;;;4.83;;
23302;SDS011;11820;48.738;9.092;2022-12-08T08:44:43;9.67;;;5.90;;
23302;SDS011;11820;48.738;9.092;2022-12-08T08:47:08;6.17;;;4.73;;
23302;SDS011;11820;48.738;9.092;2022-12-08T08:49:34;5.87;;;5.30;;
23302;SDS011;11820;48.738;9.092;2022-12-08T08:51:59;6.30;;;5.47;;
23302;SDS011;11820;48.738;9.092;2022-12-08T08:54:24;7.30;;;5.13;;
23302;SDS011;11820;48.738;9.092;2022-12-08T08:56:53;8.37;;;5.50;;
23302;SDS011;11820;48.738;9.092;2022-12-08T08:59:18;7.57;;;6.03;;
23302;SDS011;11820;48.738;9.092;2022-12-08T09:01:43;6.13;;;4.63;;
23302;SDS011;11820;48.738;9.092;2022-12-08T09:04:09;5.17;;;4.23;;
23302;SDS011;11820;48.738;9.092;2022-12-08T09:06:34;6.47;;;5.77;;
23302;SDS011;11820;48.738;9.092;2022-12-08T09:09:00;8.47;;;4.87;;
23302;SDS011;11820;48.738;9.092;2022-12-08T09:11:25;5.17;;;4.53;;
23302;SDS011;11820;48.738;9.092;2022-12-08T09:13:51;6.17;;;4.73;;
23302;SDS011;11820;48.738;9.092;2022-12-08T09:16:18;4.63;;;4.10;;
23302;SDS011;11820;48.738;9.092;2022-12-08T09:18:44;5.40;;;4.30;;
23302;SDS011;11820;48.738;9.092;2022-12-08T09:21:10;5.67;;;4.37;;
23302;SDS011;11820;48.738;9.092;2022-12-08T09:23:40;7.03;;;4.00;;
23302;SDS011;11820;48.738;9.092;2022-12-08T09:26:06;4.70;;;4.20;;
23302;SDS011;11820;48.738;9.092;2022-12-08T09:28:31;7.97;;;4.30;;
23302;SDS011;11820;48.738;9.092;2022-12-08T09:30:57;5.97;;;4.67;;
23302;SDS011;11820;48.738;9.092;2022-12-08T09:33:22;5.63;;;4.60;;
23302;SDS011;11820;48.738;9.092;2022-12-08T09:35:48;4.83;;;4.30;;
23302;SDS011;11820;48.738;9.092;2022-12-08T09:38:13;3.67;;;3.37;;
23302;SDS011;11820;48.738;9.092;2022-12-08T09:40:41;5.07;;;3.60;;
23302;SDS011;11820;48.738;9.092;2022-12-08T09:43:32;4.40;;;3.87;;
23302;SDS011;11820;48.738;9.092;2022-12-08T09:46:11;4.50;;;4.10;;
23302;SDS011;11820;48.738;9.092;2022-12-08T09:48:42;5.10;;;3.90;;
23302;SDS011;11820;48.738;9.092;2022-12-08T09:51:13;5.07;;;4.00;;
23302;SDS011;11820;48.738;9.092;2022-12-08T09:53:44;4.47;;;3.67;;
23302;SDS011;11820;48.738;9.092;2022-12-08T09:56:15;5.73;;;4.37;;
23302;SDS011;11820;48.738;9.092;2022-12-08T09:58:52;5.63;;;4.60;;
23302;SDS011;11820;48.738;9.092;2022-12-08T10:01:23;7.73;;;4.60;;
23302;SDS011;11820;48.738;9.092;2022-12-08T10:03:51;6.23;;;5.27;;
23302;SDS011;11820;48.738;9.092;2022-12-08T10:11:31;6.80;;;5.17;;
23302;SDS011;11820;48.738;9.092;2022-12-08T10:16:43;5.67;;;5.10;;
23302;SDS011;11820;48.738;9.092;2022-12-08T10:19:20;5.90;;;5.27;;
23302;SDS011;11820;48.738;9.092;2022-12-08T10:21:47;6.40;;;5.40;;
23302;SDS011;11820;48.738;9.092;2022-12-08T10:24:19;8.83;;;5.37;;
23302;SDS011;11820;48.738;9.092;2022-12-08T10:26:50;6.20;;;5.55;;
23302;SDS011;11820;48.738;9.092;2022-12-08T10:29:15;5.97;;;5.00;;
23302;SDS011;11820;48.738;9.092;2022-12-08T10:31:41;5.83;;;5.13;;
23302;SDS011;11820;48.738;9.092;2022-12-08T10:34:13;5.07;;;4.17;;
23302;SDS011;11820;48.738;9.092;2022-12-08T10:36:47;4.90;;;3.87;;
23302;SDS011;11820;48.738;9.092;2022-12-08T10:39:29;4.87;;;4.00;;
23302;SDS011;11820;48.738;9.092;2022-12-08T10:42:05;6.03;;;4.67;;
23302;SDS011;11820;48.738;9.092;2022-12-08T10:47:34;7.17;;;4.67;;
23302;SDS011;11820;48.738;9.092;2022-12-08T10:52:36;5.43;;;4.83;;
23302;SDS011;11820;48.738;9.092;2022-12-08T10:55:18;5.27;;;4.77;;
23302;SDS011;11820;48.738;9.092;2022-12-08T10:57:44;5.60;;;4.23;;
23302;SDS011;11820;48.738;9.092;2022-12-08T11:00:28;6.60;;;4.50;;
23302;SDS011;11820;48.738;9.092;2022-12-08T11:03:03;4.60;;;4.07;;
23302;SDS011;11820;48.738;9.092;2022-12-08T11:05:33;5.10;;;4.30;;
23302;SDS011;11820;48.738;9.092;2022-12-08T11:07:59;4.50;;;4.03;;
23302;SDS011;11820;48.738;9.092;2022-12-08T11:10:32;6.47;;;4.60;;
23302;SDS011;11820;48.738;9.092;2022-12-08T11:13:01;4.90;;;4.00;;
23302;SDS011;11820;48.738;9.092;2022-12-08T11:15:31;5.43;;;4.27;;
23302;SDS011;11820;48.738;9.092;2022-12-08T11:18:05;5.80;;;4.00;;
23302;SDS011;11820;48.738;9.092;2022-12-08T11:20:37;4.60;;;3.73;;
23302;SDS011;11820;48.738;9.092;2022-12-08T11:23:16;5.80;;;4.23;;
23302;SDS011;11820;48.738;9.092;2022-12-08T11:25:44;4.97;;;3.70;;
23302;SDS011;11820;48.738;9.092;2022-12-08T11:28:10;5.50;;;4.03;;
23302;SDS011;11820;48.738;9.092;2022-12-08T11:30:42;5.37;;;3.63;;
23302;SDS011;11820;48.738;9.092;2022-12-08T11:33:13;4.67;;;4.00;;
23302;SDS011;11820;48.738;9.092;2022-12-08T11:35:43;4.43;;;4.03;;
23302;SDS011;11820;48.738;9.092;2022-12-08T11:41:04;5.03;;;4.03;;
23302;SDS011;11820;48.738;9.092;2022-12-08T11:46:02;4.70;;;3.70;;
23302;SDS011;11820;48.738;9.092;2022-12-08T11:48:36;4.27;;;3.87;;
23302;SDS011;11820;48.738;9.092;2022-12-08T11:51:29;4.10;;;3.70;;
23302;SDS011;11820;48.738;9.092;2022-12-08T11:54:02;5.43;;;3.83;;
23302;SDS011;11820;48.738;9.092;2022-12-08T11:56:36;4.73;;;4.10;;
23302;SDS011;11820;48.738;9.092;2022-12-08T12:01:57;4.33;;;3.30;;
23302;SDS011;11820;48.738;9.092;2022-12-08T12:04:32;4.40;;;3.20;;
23302;SDS011;11820;48.738;9.092;2022-12-08T12:07:08;4.70;;;4.13;;
23302;SDS011;11820;48.738;9.092;2022-12-08T12:18:25;4.90;;;3.63;;
23302;SDS011;11820;48.738;9.092;2022-12-08T12:21:19;4.90;;;3.80;;
23302;SDS011;11820;48.738;9.092;2022-12-08T12:23:54;5.03;;;3.70;;
23302;SDS011;11820;48.738;9.092;2022-12-08T12:26:26;5.47;;;3.77;;
23302;SDS011;11820;48.738;9.092;2022-12-08T12:29:06;4.70;;;3.80;;
23302;SDS011;11820;48.738;9.092;2022-12-08T12:31:42;5.37;;;4.27;;
23302;SDS011;11820;48.738;9.092;2022-12-08T12:34:20;7.23;;;4.13;;
23302;SDS011;11820;48.738;9.092;2022-12-08T12:36:52;4.50;;;3.80;;
23302;SDS011;11820;48.738;9.092;2022-12-08T12:39:22;6.67;;;4.10;;
23302;SDS011;11820;48.738;9.092;2022-12-08T12:41:53;6.70;;;4.03;;
23302;SDS011;11820;48.738;9.092;2022-12-08T12:46:52;6.13;;;5.00;;
23302;SDS011;11820;48.738;9.092;2022-12-08T12:52:02;5.83;;;4.67;;
23302;SDS011;11820;48.738;9.092;2022-12-08T12:59:45;5.30;;;4.80;;
23302;SDS011;11820;48.738;9.092;2022-12-08T13:02:23;4.87;;;4.33;;
23302;SDS011;11820;48.738;9.092;2022-12-08T13:05:02;7.33;;;5.17;;
23302;SDS011;11820;48.738;9.092;2022-12-08T13:08:02;6.40;;;4.47;;
23302;SDS011;11820;48.738;9.092;2022-12-08T13:15:50;7.13;;;4.93;;
23302;SDS011;11820;48.738;9.092;2022-12-08T13:18:28;5.63;;;4.73;;
23302;SDS011;11820;48.738;9.092;2022-12-08T13:21:04;5.43;;;4.67;;
23302;SDS011;11820;48.738;9.092;2022-12-08T13:26:13;8.73;;;5.23;;
23302;SDS011;11820;48.738;9.092;2022-12-08T13:34:00;5.90;;;4.60;;
23302;SDS011;11820;48.738;9.092;2022-12-08T13:36:34;8.67;;;4.57;;
23302;SDS011;11820;48.738;9.092;2022-12-08T13:39:04;7.00;;;5.13;;
23302;SDS011;11820;48.738;9.092;2022-12-08T13:41:36;5.80;;;4.57;;
23302;SDS011;11820;48.738;9.092;2022-12-08T13:44:11;5.83;;;4.80;;
23302;SDS011;11820;48.738;9.092;2022-12-08T13:46:42;11.40;;;4.70;;
23302;SDS011;11820;48.738;9.092;2022-12-08T13:49:14;7.47;;;5.30;;
23302;SDS011;11820;48.738;9.092;2022-12-08T13:51:46;6.90;;;4.90;;
23302;SDS011;11820;48.738;9.092;2022-12-08T13:54:20;6.97;;;5.03;;
23302;SDS011;11820;48.738;9.092;2022-12-08T13:56:50;5.17;;;4.43;;
23302;SDS011;11820;48.738;9.092;2022-12-08T14:01:43;5.70;;;4.50;;
23302;SDS011;11820;48.738;9.092;2022-12-08T14:04:12;6.27;;;4.70;;
23302;SDS011;11820;48.738;9.092;2022-12-08T14:06:49;5.77;;;4.73;;
23302;SDS011;11820;48.738;9.092;2022-12-08T14:09:19;5.90;;;4.63;;
23302;SDS011;11820;48.738;9.092;2022-12-08T14:11:49;5.50;;;4.80;;
23302;SDS011;11820;48.738;9.092;2022-12-08T14:14:20;5.83;;;4.67;;
23302;SDS011;11820;48.738;9.092;2022-12-08T14:16:59;5.10;;;4.60;;
23302;SDS011;11820;48.738;9.092;2022-12-08T14:19:31;6.13;;;5.20;;
23302;SDS011;11820;48.738;9.092;2022-12-08T14:22:12;5.67;;;3.70;;
23302;SDS011;11820;48.738;9.092;2022-12-08T14:24:43;5.77;;;4.40;;
23302;SDS011;11820;48.738;9.092;2022-12-08T14:27:11;5.57;;;3.90;;
23302;SDS011;11820;48.738;9.092;2022-12-08T14:29:52;5.70;;;4.07;;
23302;SDS011;11820;48.738;9.092;2022-12-08T14:37:20;6.90;;;3.93;;
23302;SDS011;11820;48.738;9.092;2022-12-08T14:39:47;4.70;;;4.07;;
23302;SDS011;11820;48.738;9.092;2022-12-08T14:42:24;4.17;;;3.60;;
23302;SDS011;11820;48.738;9.092;2022-12-08T14:45:00;6.17;;;4.00;;
23302;SDS011;11820;48.738;9.092;2022-12-08T14:47:31;5.33;;;4.17;;
23302;SDS011;11820;48.738;9.092;2022-12-08T14:49:57;6.60;;;4.17;;
23302;SDS011;11820;48.738;9.092;2022-12-08T14:52:23;5.27;;;4.33;;
23302;SDS011;11820;48.738;9.092;2022-12-08T14:54:49;7.63;;;4.33;;
23302;SDS011;11820;48.738;9.092;2022-12-08T14:57:16;12.67;;;4.67;;
23302;SDS011;11820;48.738;9.092;2022-12-08T14:59:41;5.80;;;3.90;;
23302;SDS011;11820;48.738;9.092;2022-12-08T15:04:53;4.20;;;3.63;;
23302;SDS011;11820;48.738;9.092;2022-12-08T15:07:51;5.83;;;4.00;;
23302;SDS011;11820;48.738;9.092;2022-12-08T15:10:23;5.17;;;4.40;;
23302;SDS011;11820;48.738;9.092;2022-12-08T15:12:58;5.43;;;4.20;;
23302;SDS011;11820;48.738;9.092;2022-12-08T15:15:31;5.03;;;4.03;;
23302;SDS011;11820;48.738;9.092;2022-12-08T15:18:12;5.27;;;4.23;;
23302;SDS011;11820;48.738;9.092;2022-12-08T15:20:41;5.80;;;4.60;;
23302;SDS011;11820;48.738;9.092;2022-12-08T15:23:22;12.53;;;5.30;;
23302;SDS011;11820;48.738;9.092;2022-12-08T15:25:50;9.13;;;4.70;;
23302;SDS011;11820;48.738;9.092;2022-12-08T15:28:17;5.47;;;4.37;;
23302;SDS011;11820;48.738;9.092;2022-12-08T15:30:45;6.53;;;4.70;;
23302;SDS011;11820;48.738;9.092;2022-12-08T15:33:11;7.93;;;5.27;;
23302;SDS011;11820;48.738;9.092;2022-12-08T15:35:37;4.30;;;3.67;;
23302;SDS011;11820;48.738;9.092;2022-12-08T15:38:02;6.80;;;4.37;;
23302;SDS011;11820;48.738;9.092;2022-12-08T15:40:28;5.40;;;4.90;;
23302;SDS011;11820;48.738;9.092;2022-12-08T15:42:53;7.90;;;4.30;;
23302;SDS011;11820;48.738;9.092;2022-12-08T15:45:18;5.97;;;4.63;;
23302;SDS011;11820;48.738;9.092;2022-12-08T15:47:56;6.40;;;4.10;;
23302;SDS011;11820;48.738;9.092;2022-12-08T15:50:22;6.57;;;4.13;;
23302;SDS011;11820;48.738;9.092;2022-12-08T15:52:48;4.57;;;4.10;;
23302;SDS011;11820;48.738;9.092;2022-12-08T15:55:14;5.30;;;3.70;;
23302;SDS011;11820;48.738;9.092;2022-12-08T15:57:59;6.53;;;3.87;;
23302;SDS011;11820;48.738;9.092;2022-12-08T16:00:26;6.37;;;4.67;;
23302;SDS011;11820;48.738;9.092;2022-12-08T16:02:54;5.97;;;4.67;;
23302;SDS011;11820;48.738;9.092;2022-12-08T16:05:21;6.03;;;4.30;;
23302;SDS011;11820;48.738;9.092;2022-12-08T16:07:47;5.60;;;3.93;;
23302;SDS011;11820;48.738;9.092;2022-12-08T16:10:13;4.93;;;4.00;;
23302;SDS011;11820;48.738;9.092;2022-12-08T16:12:42;8.63;;;4.17;;
23302;SDS011;11820;48.738;9.092;2022-12-08T16:15:26;4.33;;;3.80;;
23302;SDS011;11820;48.738;9.092;2022-12-08T16:17:52;6.37;;;4.10;;
23302;SDS011;11820;48.738;9.092;2022-12-08T16:20:18;6.50;;;4.37;;
23302;SDS011;11820;48.738;9.092;2022-12-08T16:22:43;7.50;;;4.47;;
23302;SDS011;11820;48.738;9.092;2022-12-08T16:25:09;5.13;;;4.00;;
23302;SDS011;11820;48.738;9.092;2022-12-08T16:27:37;5.43;;;4.50;;
23302;SDS011;11820;48.738;9.092;2022-12-08T16:30:04;6.13;;;4.23;;